4°C
Woerden, The Nederlands
Taal:  Nederlands
Updated02/12/2022 01:35 
 

Nearby METAR Reports

EHAM - Amsterdam/Schiph, Netherlands
Distance from station: N 27km
Updated: 02/12/2022 01:25
Meestal bewolkt
Meestal bewolkt
 Wind van ONO
Wind: ONO 15 km/h
Temperatuur: 5°C
Hitte Index: 2°C
Dauwpunt: 3°C
Vochtigheid: 87%
Barometer: 1026 hPa
Clouds: Meestal bewolkt
Visibility: 6 km
Cloud details: Gedeeltelijk bewolkt 244 m
Meestal bewolkt 457 m
2022/12/02 00:25 EHAM 020025Z 06008KT 030V090 6000 SCT008 BKN015 05/03 Q1026 TEMPO BKN012
EHRD - Rotterdam Airpor, Netherlands
Distance from station: WZW 30km
Updated: 02/12/2022 01:25
Mist, Zwaar bewolkt
Mist, Zwaar bewolkt
 Wind van NO
Wind: NO 9 km/h
Temperatuur: 4°C
Hitte Index: 2°C
Dauwpunt: 4°C
Vochtigheid: 100%
Barometer: 1026 hPa
Overzicht: Mist
Clouds: Zwaar bewolkt
Visibility: 5 km
Cloud details: Meestal bewolkt 457 m
Zwaar bewolkt 549 m
2022/12/02 00:25 EHRD 020025Z AUTO 05005KT 4900 BR BKN015/// OVC018/// 04/04 Q1026 NOSIG
 
EHGR - Gilze-Rijen Rnla, Netherlands
Distance from station: Z 57km
Updated: 02/12/2022 01:25
Mist, Zwaar bewolkt
Mist, Zwaar bewolkt
 Wind van N
Wind: N 7 km/h
Temperatuur: 4°C
Hitte Index: 2°C
Dauwpunt: 4°C
Vochtigheid: 100%
Barometer: 1025 hPa
Overzicht: Mist
Clouds: Zwaar bewolkt
Visibility: 4 km
Cloud details: Few Clouds 366 m
Zwaar bewolkt 1280 m
2022/12/02 00:25 EHGR 020025Z AUTO 01004KT 320V040 3900 BR FEW012 OVC042 04/04 Q1025 GRN
EHDL - Deelen Rnlafb, Netherlands
Distance from station: O 71km
Updated: 02/12/2022 01:25
Mist, Zwaar bewolkt
Mist, Zwaar bewolkt
 Wind van ONO
Wind: ONO 7 km/h
Temperatuur: 4°C
Hitte Index: 2°C
Dauwpunt: 2°C
Vochtigheid: 87%
Barometer: 1026 hPa
Overzicht: Mist
Clouds: Zwaar bewolkt
Visibility: 4 km
Cloud details: Meestal bewolkt 213 m
Zwaar bewolkt 244 m
2022/12/02 00:25 EHDL 020025Z AUTO 07004KT 350V140 3800 BR BKN007 OVC008 04/02 Q1026 GRN
 
EHVK - Volkel Rnlafb, Netherlands
Distance from station: ZO 77km
Updated: 02/12/2022 01:25
Mist, Zwaar bewolkt
Mist, Zwaar bewolkt
 Wind van NO
Wind: NO 15 km/h
Temperatuur: 4°C
Hitte Index: 1°C
Dauwpunt: 2°C
Vochtigheid: 87%
Barometer: 1025 hPa
Overzicht: Mist
Clouds: Zwaar bewolkt
Visibility: 3 km
Cloud details: Zwaar bewolkt 305 m
2022/12/02 00:25 EHVK 020025Z AUTO 05008KT 020V090 3200 BR OVC010 04/02 Q1025 YLO
EHWO - Woensdrecht Rnla, Netherlands
Distance from station: ZZW 78km
Updated: 02/12/2022 01:25
Mist, Zwaar bewolkt
Mist, Zwaar bewolkt
 Wind van varies
Wind: varies 2 km/h
Temperatuur: 1°C
Dauwpunt: 1°C
Vochtigheid: 100%
Barometer: 1026 hPa
Overzicht: Mist
Clouds: Zwaar bewolkt
Visibility: 2 km
Cloud details: Few Clouds 305 m
Zwaar bewolkt 5486 m
2022/12/02 00:25 EHWO 020025Z AUTO VRB01KT 2200 BR FEW010 OVC180 01/01 Q1026 YLO
 
EHEH - Eindhoven Rnlafb, Netherlands
Distance from station: ZZO 81km
Updated: 02/12/2022 01:29
Mist, Zwaar bewolkt
Mist, Zwaar bewolkt
 Wind van ONO
Wind: ONO 13 km/h
Temperatuur: 5°C
Hitte Index: 2°C
Dauwpunt: 3°C
Vochtigheid: 87%
Barometer: 1025 hPa
Overzicht: Mist
Clouds: Zwaar bewolkt
Visibility: 4 km
Cloud details: Meestal bewolkt 244 m
Zwaar bewolkt 335 m
2022/12/02 00:29 EHEH 020029Z AUTO 06007KT 030V100 4300 BR BKN008/// OVC011/// 05/03 Q1025 GRN
EHSC - Goeree Le Sea, Netherlands
Distance from station: W 81km
Updated: 02/12/2022 01:25

 Wind van O
Wind: O 11 km/h
Temperatuur: 7°C
Hitte Index: 5°C
Dauwpunt: 4°C
Vochtigheid: 81%
Barometer: 1027 hPa
Visibility: 10 km
2022/12/02 00:25 EHSC 020025Z AUTO 08006KT 050V110 9999 ///////// 07/04 Q1027 W12/H5